Time;durP1;ratioP1;P1;durP2;ratioP2;P2;SDS_P1;SDS_P2;PMS_P1;PMS_P2;Temp;Humidity;BMP_temperature;BMP_pressure;BME280_temperature;BME280_humidity;BME280_pressure;Samples;Min_cycle;Max_cycle;Signal;HPM_P1;HPM_P2
2023/04/20 00:02:01;;;;;;;0.00;0.00;;;5.30;97.90;;;;;;5090312;28;20169;-59
2023/04/20 00:04:28;;;;;;;0.00;0.00;;;5.30;98.20;;;;;;5091892;28;20168;-59
2023/04/20 00:06:55;;;;;;;0.03;0.03;;;5.30;98.30;;;;;;5094203;28;20176;-59
2023/04/20 00:09:21;;;;;;;0.00;0.00;;;5.30;98.30;;;;;;5094257;28;20180;-59
2023/04/20 00:11:47;;;;;;;0.00;0.00;;;5.30;98.30;;;;;;5094268;28;20258;-59
2023/04/20 00:14:14;;;;;;;0.00;0.00;;;5.30;98.40;;;;;;5093669;28;20876;-59
2023/04/20 00:16:40;;;;;;;0.00;0.00;;;5.30;98.70;;;;;;5093936;28;20538;-59
2023/04/20 00:19:08;;;;;;;0.20;0.20;;;5.20;98.90;;;;;;5093891;28;20176;-58
2023/04/20 00:21:34;;;;;;;0.00;0.00;;;5.20;99.00;;;;;;5093888;28;20184;-59
2023/04/20 00:24:00;;;;;;;0.00;0.00;;;5.20;99.00;;;;;;5093842;28;20167;-59
2023/04/20 00:26:26;;;;;;;0.00;0.00;;;5.20;99.00;;;;;;5093715;28;20694;-59
2023/04/20 00:28:52;;;;;;;0.10;0.10;;;5.10;99.10;;;;;;5093413;28;20234;-59
2023/04/20 00:31:19;;;;;;;0.00;0.00;;;5.10;99.30;;;;;;5093655;28;20210;-59
2023/04/20 00:33:44;;;;;;;0.43;0.20;;;5.00;99.50;;;;;;5093523;28;20216;-59
2023/04/20 00:36:10;;;;;;;0.00;0.00;;;5.00;99.70;;;;;;5093706;28;20191;-59
2023/04/20 00:38:35;;;;;;;0.00;0.00;;;4.90;99.90;;;;;;5093584;28;20172;-59
2023/04/20 00:41:01;;;;;;;0.00;0.00;;;4.80;99.90;;;;;;5093616;28;20650;-59
2023/04/20 00:43:27;;;;;;;0.00;0.00;;;4.80;99.90;;;;;;5093194;28;20642;-59
2023/04/20 00:45:52;;;;;;;0.00;0.00;;;4.80;99.90;;;;;;5093328;28;20173;-58
2023/04/20 00:48:19;;;;;;;0.00;0.00;;;4.80;99.90;;;;;;5093437;28;20180;-59
2023/04/20 00:50:45;;;;;;;0.00;0.00;;;4.70;99.90;;;;;;5093418;28;20183;-59
2023/04/20 00:53:12;;;;;;;0.00;0.00;;;4.70;99.90;;;;;;5093047;28;20568;-59
2023/04/20 00:55:38;;;;;;;0.00;0.00;;;4.70;99.90;;;;;;5093370;28;20638;-59
2023/04/20 00:58:05;;;;;;;0.00;0.00;;;4.60;99.90;;;;;;5092672;28;20566;-60
2023/04/20 01:00:31;;;;;;;0.00;0.00;;;4.60;99.90;;;;;;5092375;28;20647;-59
2023/04/20 01:02:57;;;;;;;0.00;0.00;;;4.50;99.90;;;;;;5092772;28;20168;-60
2023/04/20 01:05:23;;;;;;;0.00;0.00;;;4.50;99.90;;;;;;5092495;28;20533;-60
2023/04/20 01:07:49;;;;;;;0.08;0.08;;;4.50;99.90;;;;;;5092727;28;20539;-60
2023/04/20 01:10:14;;;;;;;0.00;0.00;;;4.50;99.90;;;;;;5092867;28;20477;-60
2023/04/20 01:12:40;;;;;;;0.10;0.10;;;4.40;99.90;;;;;;5092616;28;20746;-60
2023/04/20 01:15:07;;;;;;;0.00;0.00;;;4.40;99.90;;;;;;5092449;28;20184;-60
2023/04/20 01:17:33;;;;;;;0.10;0.10;;;4.40;99.90;;;;;;5092516;28;20168;-59
2023/04/20 01:19:59;;;;;;;0.00;0.00;;;4.40;99.90;;;;;;5092752;28;20183;-60
2023/04/20 01:22:25;;;;;;;0.00;0.00;;;4.30;99.90;;;;;;5092361;28;20175;-60
2023/04/20 01:24:51;;;;;;;0.05;0.05;;;4.30;99.90;;;;;;5090891;28;20195;-59
2023/04/20 01:27:16;;;;;;;0.00;0.00;;;4.20;99.90;;;;;;5091159;28;20581;-60
2023/04/20 01:29:43;;;;;;;0.00;0.00;;;4.20;99.90;;;;;;5093076;28;20172;-60
2023/04/20 01:32:09;;;;;;;0.00;0.00;;;4.20;99.90;;;;;;5090866;28;20200;-60
2023/04/20 01:34:35;;;;;;;0.00;0.00;;;4.10;99.90;;;;;;5092015;28;20716;-60
2023/04/20 01:37:01;;;;;;;0.00;0.00;;;4.10;99.90;;;;;;5092825;28;20260;-60
2023/04/20 01:39:27;;;;;;;0.00;0.00;;;4.10;99.90;;;;;;5092476;28;20212;-60
2023/04/20 01:41:52;;;;;;;0.10;0.10;;;4.10;99.90;;;;;;5093059;28;20259;-60
2023/04/20 01:44:18;;;;;;;0.00;0.00;;;4.10;99.90;;;;;;5092472;28;20178;-60
2023/04/20 01:46:44;;;;;;;0.00;0.00;;;4.10;99.90;;;;;;5092832;28;20248;-59
2023/04/20 01:49:09;;;;;;;0.15;0.15;;;4.00;99.90;;;;;;5092593;28;20183;-60
2023/04/20 01:51:35;;;;;;;0.00;0.00;;;4.00;99.90;;;;;;5092605;28;20179;-60
2023/04/20 01:54:01;;;;;;;0.00;0.00;;;4.00;99.90;;;;;;5074292;28;20216;-60
2023/04/20 01:56:27;;;;;;;0.00;0.00;;;4.00;99.90;;;;;;5092494;28;20176;-60
2023/04/20 01:58:54;;;;;;;0.00;0.00;;;3.90;99.90;;;;;;5092542;28;20229;-60
2023/04/20 02:01:19;;;;;;;0.15;0.15;;;3.90;99.90;;;;;;5092188;28;20590;-60
2023/04/20 02:03:45;;;;;;;0.20;0.20;;;3.90;99.90;;;;;;5092401;28;20204;-60
2023/04/20 02:06:10;;;;;;;0.00;0.00;;;3.90;99.90;;;;;;5092267;28;20627;-60
2023/04/20 02:08:36;;;;;;;0.00;0.00;;;3.80;99.90;;;;;;5092353;28;20233;-60
2023/04/20 02:11:02;;;;;;;0.00;0.00;;;3.80;99.90;;;;;;5092262;28;20179;-60
2023/04/20 02:13:27;;;;;;;0.00;0.00;;;3.80;99.90;;;;;;5091830;28;20273;-60
2023/04/20 02:15:53;;;;;;;0.00;0.00;;;3.80;99.90;;;;;;5091658;28;20172;-60
2023/04/20 02:18:18;;;;;;;0.08;0.08;;;3.70;99.90;;;;;;5091505;28;20184;-60
2023/04/20 02:20:44;;;;;;;0.00;0.00;;;3.70;99.90;;;;;;5091627;28;20178;-60
2023/04/20 02:23:10;;;;;;;0.00;0.00;;;3.70;99.90;;;;;;5091340;28;20204;-60
2023/04/20 02:25:36;;;;;;;0.00;0.00;;;3.60;99.90;;;;;;5073591;28;20603;-60
2023/04/20 02:28:02;;;;;;;0.00;0.00;;;3.60;99.90;;;;;;5091003;28;20208;-60
2023/04/20 02:30:27;;;;;;;0.00;0.00;;;3.60;99.90;;;;;;5091452;28;20172;-60
2023/04/20 02:32:53;;;;;;;0.00;0.00;;;3.60;99.90;;;;;;5091506;28;20207;-60
2023/04/20 02:35:18;;;;;;;0.05;0.05;;;3.50;99.90;;;;;;5091660;28;20323;-59
2023/04/20 02:37:44;;;;;;;0.00;0.00;;;3.50;99.90;;;;;;5073600;28;20187;-60
2023/04/20 02:40:10;;;;;;;0.00;0.00;;;3.40;99.90;;;;;;5091835;28;20176;-60
2023/04/20 02:42:36;;;;;;;0.00;0.00;;;3.40;99.90;;;;;;5091847;28;20210;-60
2023/04/20 02:45:01;;;;;;;0.00;0.00;;;3.40;99.90;;;;;;5091665;28;20249;-60
2023/04/20 02:47:27;;;;;;;0.00;0.00;;;3.40;99.90;;;;;;5091679;28;20179;-60
2023/04/20 02:49:52;;;;;;;0.00;0.00;;;3.40;99.90;;;;;;5091588;28;20175;-60
2023/04/20 02:52:18;;;;;;;0.30;0.30;;;3.30;99.90;;;;;;5091359;28;20746;-60
2023/04/20 02:54:44;;;;;;;0.00;0.00;;;3.30;99.90;;;;;;5091459;28;20168;-60
2023/04/20 02:57:10;;;;;;;0.08;0.08;;;3.30;99.90;;;;;;5091616;28;20168;-60
2023/04/20 02:59:36;;;;;;;0.00;0.00;;;3.30;99.90;;;;;;5091513;28;20196;-60
2023/04/20 03:02:02;;;;;;;0.00;0.00;;;3.20;99.90;;;;;;5073510;28;20226;-61
2023/04/20 03:04:27;;;;;;;0.00;0.00;;;3.20;99.90;;;;;;5091376;28;20180;-59
2023/04/20 03:06:53;;;;;;;0.00;0.00;;;3.10;99.90;;;;;;5091374;28;20180;-60
2023/04/20 03:09:19;;;;;;;0.00;0.00;;;3.10;99.90;;;;;;5091207;28;20168;-60
2023/04/20 03:11:44;;;;;;;0.57;0.57;;;3.00;99.90;;;;;;5091295;28;20221;-60
2023/04/20 03:14:10;;;;;;;0.43;0.43;;;3.00;99.90;;;;;;5091278;28;20208;-60
2023/04/20 03:16:36;;;;;;;0.00;0.00;;;3.00;99.90;;;;;;5091730;28;20180;-60
2023/04/20 03:19:03;;;;;;;0.00;0.00;;;3.00;99.90;;;;;;5091178;28;20236;-61
2023/04/20 03:21:28;;;;;;;0.30;0.30;;;3.00;99.90;;;;;;5091510;28;20377;-60
2023/04/20 03:23:54;;;;;;;0.13;0.13;;;3.00;99.90;;;;;;5091120;28;20812;-60
2023/04/20 03:26:19;;;;;;;0.00;0.00;;;2.90;99.90;;;;;;5091169;28;20195;-60
2023/04/20 03:28:45;;;;;;;0.00;0.00;;;2.90;99.90;;;;;;5074256;28;20724;-60
2023/04/20 03:31:11;;;;;;;0.40;0.40;;;2.90;99.90;;;;;;5090753;28;20191;-60
2023/04/20 03:33:36;;;;;;;0.00;0.00;;;2.90;99.90;;;;;;5090461;28;20314;-60
2023/04/20 03:36:03;;;;;;;0.00;0.00;;;2.80;99.90;;;;;;5088525;28;20200;-59
2023/04/20 03:38:29;;;;;;;0.00;0.00;;;2.80;99.90;;;;;;5089112;28;20184;-60
2023/04/20 03:40:55;;;;;;;0.00;0.00;;;2.80;99.90;;;;;;5075099;28;20195;-59
2023/04/20 03:43:20;;;;;;;0.00;0.00;;;2.80;99.90;;;;;;5094537;28;20181;-60
2023/04/20 03:45:46;;;;;;;0.00;0.00;;;2.80;99.90;;;;;;5094458;28;20212;-59
2023/04/20 03:48:11;;;;;;;0.00;0.00;;;2.80;99.90;;;;;;5094613;28;20184;-62
2023/04/20 03:50:37;;;;;;;0.00;0.00;;;2.80;99.90;;;;;;5094896;28;20628;-61
2023/04/20 03:53:02;;;;;;;0.00;0.00;;;2.80;99.90;;;;;;5093669;28;20215;-61
2023/04/20 03:55:28;;;;;;;0.00;0.00;;;2.80;99.90;;;;;;5091781;28;20222;-62
2023/04/20 03:57:53;;;;;;;0.00;0.00;;;2.80;99.90;;;;;;5093045;28;20410;-60
2023/04/20 04:00:19;;;;;;;0.00;0.00;;;2.80;99.90;;;;;;5092783;28;20185;-59
2023/04/20 04:02:45;;;;;;;0.00;0.00;;;2.80;99.90;;;;;;5092876;28;20225;-60
2023/04/20 04:05:11;;;;;;;0.00;0.00;;;2.80;99.90;;;;;;5093033;28;20180;-62
2023/04/20 04:07:36;;;;;;;0.08;0.08;;;2.80;99.90;;;;;;5074512;28;20187;-60
2023/04/20 04:10:04;;;;;;;0.00;0.00;;;2.80;99.90;;;;;;5093784;28;20567;-60
2023/04/20 04:12:30;;;;;;;0.05;0.05;;;2.80;99.90;;;;;;5093333;28;20224;-60
2023/04/20 04:14:56;;;;;;;0.20;0.20;;;2.80;99.90;;;;;;5093475;28;20551;-60
2023/04/20 04:17:21;;;;;;;0.00;0.00;;;2.80;99.90;;;;;;5094275;28;20176;-59
2023/04/20 04:19:47;;;;;;;0.10;0.10;;;2.80;99.90;;;;;;5093655;28;20183;-59
2023/04/20 04:22:12;;;;;;;0.00;0.00;;;2.70;99.90;;;;;;5093512;28;20187;-59
2023/04/20 04:24:40;;;;;;;0.00;0.00;;;2.80;99.90;;;;;;5093877;28;20586;-59
2023/04/20 04:27:06;;;;;;;0.00;0.00;;;2.70;99.90;;;;;;5094011;28;20327;-59
2023/04/20 04:29:34;;;;;;;0.00;0.00;;;2.70;99.90;;;;;;5094321;28;20312;-59
2023/04/20 04:32:04;;;;;;;0.00;0.00;;;2.70;99.90;;;;;;5094303;28;20206;-59
2023/04/20 04:34:30;;;;;;;0.20;0.20;;;2.80;99.90;;;;;;5093958;28;20220;-59
2023/04/20 04:36:56;;;;;;;0.00;0.00;;;2.80;99.90;;;;;;5094321;28;20269;-59
2023/04/20 04:39:21;;;;;;;0.00;0.00;;;2.80;99.90;;;;;;5094025;28;20654;-59
2023/04/20 04:41:47;;;;;;;0.00;0.00;;;2.80;99.90;;;;;;5093888;28;20634;-59
2023/04/20 04:44:14;;;;;;;0.00;0.00;;;2.80;99.90;;;;;;5094012;28;20264;-59
2023/04/20 04:46:40;;;;;;;0.00;0.00;;;2.80;99.90;;;;;;5093852;28;20180;-59
2023/04/20 04:49:06;;;;;;;0.00;0.00;;;2.80;99.90;;;;;;5093470;28;20176;-60
2023/04/20 04:51:32;;;;;;;0.08;0.08;;;2.80;99.90;;;;;;5092917;28;20165;-59
2023/04/20 04:53:58;;;;;;;0.00;0.00;;;2.80;99.90;;;;;;5093343;28;20222;-59
2023/04/20 04:56:23;;;;;;;0.00;0.00;;;2.80;99.90;;;;;;5075261;28;20176;-59
2023/04/20 04:58:49;;;;;;;0.00;0.00;;;2.80;99.90;;;;;;5093356;28;20164;-59
2023/04/20 05:01:15;;;;;;;0.00;0.00;;;2.90;99.90;;;;;;5093308;28;20557;-59
2023/04/20 05:03:40;;;;;;;0.00;0.00;;;2.90;99.90;;;;;;5093113;28;20184;-59
2023/04/20 05:06:06;;;;;;;0.00;0.00;;;3.00;99.90;;;;;;5092952;28;20172;-60
2023/04/20 05:08:33;;;;;;;0.38;0.38;;;3.00;99.90;;;;;;5075074;28;20180;-59
2023/04/20 05:10:58;;;;;;;0.00;0.00;;;3.20;99.90;;;;;;5093085;28;20489;-59
2023/04/20 05:13:24;;;;;;;0.03;0.03;;;3.30;99.90;;;;;;5093021;28;20207;-59
2023/04/20 05:15:49;;;;;;;0.00;0.00;;;3.40;99.90;;;;;;5092991;28;20203;-59
2023/04/20 05:18:15;;;;;;;0.00;0.00;;;3.60;99.90;;;;;;5092910;28;20532;-59
2023/04/20 05:20:41;;;;;;;0.00;0.00;;;3.80;99.90;;;;;;5092905;28;20172;-59
2023/04/20 05:23:06;;;;;;;0.00;0.00;;;4.10;99.90;;;;;;5092787;28;20183;-59
2023/04/20 05:25:32;;;;;;;0.00;0.00;;;4.40;99.90;;;;;;5092798;28;20183;-59
2023/04/20 05:27:58;;;;;;;0.00;0.00;;;4.70;99.90;;;;;;5092606;28;20228;-59
2023/04/20 05:30:23;;;;;;;0.00;0.00;;;5.00;99.90;;;;;;5092677;28;20220;-59
2023/04/20 05:32:50;;;;;;;0.00;0.00;;;5.30;99.90;;;;;;5074388;28;20207;-59
2023/04/20 05:35:15;;;;;;;0.20;0.20;;;5.50;99.90;;;;;;5092446;28;20217;-59
2023/04/20 05:37:41;;;;;;;0.00;0.00;;;5.60;99.90;;;;;;5092540;28;20303;-59
2023/04/20 05:40:08;;;;;;;0.00;0.00;;;5.80;99.90;;;;;;5092192;28;20180;-59
2023/04/20 05:42:33;;;;;;;0.00;0.00;;;6.10;99.90;;;;;;5092462;28;20233;-59
2023/04/20 05:44:59;;;;;;;0.00;0.00;;;6.40;99.90;;;;;;5092219;28;20665;-59
2023/04/20 05:47:26;;;;;;;0.00;0.00;;;6.70;99.90;;;;;;5092123;28;20182;-60
2023/04/20 05:49:52;;;;;;;0.00;0.00;;;7.30;99.90;;;;;;5092390;28;20176;-59
2023/04/20 05:52:17;;;;;;;0.00;0.00;;;7.80;99.90;;;;;;5092012;28;20180;-60
2023/04/20 05:54:43;;;;;;;0.00;0.00;;;8.20;99.90;;;;;;5092371;28;20506;-60
2023/04/20 05:57:08;;;;;;;0.00;0.00;;;8.70;98.90;;;;;;5092293;28;20711;-60
2023/04/20 05:59:34;;;;;;;0.00;0.00;;;9.10;97.70;;;;;;5092310;28;20187;-59
2023/04/20 06:02:00;;;;;;;0.00;0.00;;;9.30;97.40;;;;;;5091437;28;20254;-60
2023/04/20 06:04:26;;;;;;;0.00;0.00;;;9.70;96.70;;;;;;5092130;28;20183;-60
2023/04/20 06:06:51;;;;;;;0.00;0.00;;;10.10;95.70;;;;;;5073894;28;20234;-59
2023/04/20 06:09:17;;;;;;;0.25;0.25;;;10.50;94.60;;;;;;5092164;28;20179;-60
2023/04/20 06:11:43;;;;;;;0.00;0.00;;;10.90;93.90;;;;;;5092015;28;20188;-60
2023/04/20 06:14:10;;;;;;;0.00;0.00;;;11.20;93.00;;;;;;5091951;28;20230;-60
2023/04/20 06:16:36;;;;;;;0.00;0.00;;;11.30;91.90;;;;;;5092000;28;20263;-60
2023/04/20 06:19:02;;;;;;;0.00;0.00;;;11.50;91.70;;;;;;5092074;28;20255;-60
2023/04/20 06:21:28;;;;;;;0.10;0.10;;;11.90;91.30;;;;;;5091775;28;20176;-60
2023/04/20 06:23:53;;;;;;;0.00;0.00;;;12.00;89.80;;;;;;5091913;28;20172;-60
2023/04/20 06:26:19;;;;;;;0.00;0.00;;;12.20;89.00;;;;;;5091775;28;20168;-60
2023/04/20 06:28:46;;;;;;;0.00;0.00;;;12.50;87.60;;;;;;5091709;28;20223;-60
2023/04/20 06:31:11;;;;;;;0.00;0.00;;;12.70;85.50;;;;;;5091621;28;20259;-60
2023/04/20 06:33:37;;;;;;;0.00;0.00;;;13.00;85.70;;;;;;5091631;28;20758;-60
2023/04/20 06:36:06;;;;;;;0.00;0.00;;;13.20;83.00;;;;;;5091614;28;20176;-57
2023/04/20 06:38:32;;;;;;;0.00;0.00;;;13.40;80.70;;;;;;5091538;28;20643;-60
2023/04/20 06:41:00;;;;;;;0.00;0.00;;;13.40;80.30;;;;;;5091615;28;20176;-58
2023/04/20 06:43:26;;;;;;;0.00;0.00;;;13.60;79.60;;;;;;5091345;28;20218;-59
2023/04/20 06:45:51;;;;;;;0.00;0.00;;;13.70;78.30;;;;;;5091499;28;20196;-59
2023/04/20 06:48:17;;;;;;;0.00;0.00;;;13.60;76.80;;;;;;5091528;28;20204;-59
2023/04/20 06:50:43;;;;;;;0.00;0.00;;;13.50;77.20;;;;;;5091423;28;20168;-59
2023/04/20 06:53:08;;;;;;;0.00;0.00;;;13.20;78.10;;;;;;5091076;28;20700;-59
2023/04/20 06:55:34;;;;;;;0.00;0.00;;;13.30;78.80;;;;;;5091344;28;20178;-58
2023/04/20 06:57:59;;;;;;;0.00;0.00;;;13.70;78.80;;;;;;5091276;28;20168;-59
2023/04/20 07:00:27;;;;;;;0.00;0.00;;;14.00;76.40;;;;;;5091116;28;20537;-60
2023/04/20 07:02:52;;;;;;;0.00;0.00;;;14.20;76.10;;;;;;5091391;28;20229;-59
2023/04/20 07:05:18;;;;;;;0.00;0.00;;;14.40;75.20;;;;;;5091303;28;20168;-59
2023/04/20 07:07:44;;;;;;;0.00;0.00;;;14.40;74.20;;;;;;5091267;28;20180;-57
2023/04/20 07:10:12;;;;;;;0.00;0.00;;;14.50;73.00;;;;;;5091157;28;20221;-58
2023/04/20 07:12:39;;;;;;;0.00;0.00;;;14.50;72.30;;;;;;5073352;28;20212;-59
2023/04/20 07:15:06;;;;;;;0.00;0.00;;;14.40;73.20;;;;;;5091356;28;20305;-59
2023/04/20 07:17:32;;;;;;;0.00;0.00;;;14.60;72.60;;;;;;5091342;28;20833;-58
2023/04/20 07:20:04;;;;;;;0.00;0.00;;;14.60;72.80;;;;;;5091545;28;20176;-59
2023/04/20 07:22:31;;;;;;;0.00;0.00;;;14.90;71.40;;;;;;5091414;28;20184;-59
2023/04/20 07:24:56;;;;;;;0.00;0.00;;;14.80;71.40;;;;;;5091453;28;20321;-59
2023/04/20 07:27:22;;;;;;;0.00;0.00;;;14.80;70.90;;;;;;5091092;28;20302;-59
2023/04/20 07:29:47;;;;;;;0.00;0.00;;;15.20;72.30;;;;;;5091150;28;20666;-59
2023/04/20 07:32:13;;;;;;;0.00;0.00;;;15.50;69.20;;;;;;5091182;28;20243;-59
2023/04/20 07:34:39;;;;;;;0.00;0.00;;;15.90;69.90;;;;;;5091372;28;20180;-59
2023/04/20 07:37:04;;;;;;;0.00;0.00;;;16.20;67.50;;;;;;5091373;28;20178;-59
2023/04/20 07:39:30;;;;;;;0.00;0.00;;;16.20;66.50;;;;;;5091067;28;20230;-59
2023/04/20 07:41:56;;;;;;;0.00;0.00;;;16.40;66.60;;;;;;5091158;28;20247;-60
2023/04/20 07:44:21;;;;;;;0.00;0.00;;;16.50;66.50;;;;;;5073046;28;20214;-59
2023/04/20 07:46:48;;;;;;;0.00;0.00;;;16.80;66.10;;;;;;5091068;28;20180;-59
2023/04/20 07:49:14;;;;;;;0.00;0.00;;;17.00;63.70;;;;;;5091148;28;20168;-59
2023/04/20 07:51:40;;;;;;;0.00;0.00;;;16.90;63.30;;;;;;5091084;28;20287;-60
2023/04/20 07:54:06;;;;;;;0.10;0.10;;;17.20;63.60;;;;;;5072927;28;20212;-58
2023/04/20 07:56:32;;;;;;;0.00;0.00;;;17.70;62.30;;;;;;5090988;28;20176;-60
2023/04/20 07:58:57;;;;;;;0.00;0.00;;;17.90;62.00;;;;;;5091007;28;20176;-58
2023/04/20 08:01:24;;;;;;;0.00;0.00;;;18.20;63.30;;;;;;5090966;28;20203;-58
2023/04/20 08:03:50;;;;;;;0.00;0.00;;;18.70;62.30;;;;;;5090898;28;20169;-58
2023/04/20 08:06:16;;;;;;;0.00;0.00;;;19.10;59.20;;;;;;5090874;28;20183;-58
2023/04/20 08:08:41;;;;;;;0.00;0.00;;;19.30;58.80;;;;;;5091139;28;20183;-59
2023/04/20 08:11:07;;;;;;;0.00;0.00;;;19.40;57.20;;;;;;5090819;28;20313;-59
2023/04/20 08:13:33;;;;;;;0.00;0.00;;;19.30;56.90;;;;;;5090865;28;20340;-59
2023/04/20 08:15:58;;;;;;;0.00;0.00;;;19.20;56.90;;;;;;5090882;28;20226;-58
2023/04/20 08:18:24;;;;;;;0.00;0.00;;;19.20;56.60;;;;;;5090806;28;20179;-59
2023/04/20 08:20:50;;;;;;;0.00;0.00;;;19.00;57.40;;;;;;5090771;28;20168;-59
2023/04/20 08:23:15;;;;;;;0.00;0.00;;;19.10;57.10;;;;;;5090739;28;20642;-59
2023/04/20 08:25:41;;;;;;;0.00;0.00;;;19.20;57.00;;;;;;5092422;28;20165;-59
2023/04/20 08:28:07;;;;;;;0.00;0.00;;;19.10;57.60;;;;;;5093948;28;20235;-59
2023/04/20 08:30:33;;;;;;;0.00;0.00;;;19.00;56.80;;;;;;5094279;28;20176;-59
2023/04/20 08:32:58;;;;;;;0.28;0.10;;;18.80;57.30;;;;;;5094243;28;20295;-58
2023/04/20 08:35:24;;;;;;;0.00;0.00;;;18.80;57.40;;;;;;5094198;28;20179;-59
2023/04/20 08:37:50;;;;;;;0.00;0.00;;;18.80;57.30;;;;;;5076027;28;20305;-60
2023/04/20 08:40:18;;;;;;;0.22;0.22;;;18.90;58.60;;;;;;5094087;28;20529;-59
2023/04/20 08:42:44;;;;;;;0.00;0.00;;;19.10;57.80;;;;;;5094197;28;20198;-59
2023/04/20 08:45:11;;;;;;;0.00;0.00;;;19.00;57.60;;;;;;5094073;28;20245;-59
2023/04/20 08:47:39;;;;;;;0.03;0.03;;;18.90;56.80;;;;;;5094195;28;20176;-60
2023/04/20 08:50:05;;;;;;;0.00;0.00;;;19.00;58.30;;;;;;5094040;28;20619;-59
2023/04/20 08:52:32;;;;;;;0.00;0.00;;;19.00;56.80;;;;;;5093846;28;20213;-59
2023/04/20 08:54:57;;;;;;;0.00;0.00;;;19.20;57.70;;;;;;5093886;28;20184;-59
2023/04/20 08:57:24;;;;;;;0.00;0.00;;;19.10;56.80;;;;;;5093868;28;20180;-59
2023/04/20 08:59:49;;;;;;;0.00;0.00;;;19.20;56.90;;;;;;5093827;28;20226;-59
2023/04/20 09:02:15;;;;;;;0.00;0.00;;;19.10;55.70;;;;;;5093633;28;20204;-59
2023/04/20 09:04:40;;;;;;;0.00;0.00;;;18.80;55.60;;;;;;5093770;28;20251;-59
2023/04/20 09:07:15;;;;;;;0.05;0.05;;;18.60;57.90;;;;;;5093677;28;20763;-60
2023/04/20 09:09:41;;;;;;;0.00;0.00;;;18.60;57.10;;;;;;5093699;28;20511;-59
2023/04/20 09:12:08;;;;;;;0.00;0.00;;;18.20;56.00;;;;;;5093551;28;20216;-59
2023/04/20 09:14:45;;;;;;;0.00;0.00;;;17.50;56.80;;;;;;5093551;28;20211;-59
2023/04/20 09:17:13;;;;;;;0.00;0.00;;;17.10;58.30;;;;;;5093278;28;20176;-59
2023/04/20 09:19:39;;;;;;;0.00;0.00;;;16.80;58.90;;;;;;5093520;28;20187;-59
2023/04/20 09:22:05;;;;;;;0.08;0.08;;;16.20;60.30;;;;;;5093330;28;20217;-59
2023/04/20 09:24:35;;;;;;;0.22;0.22;;;16.10;61.70;;;;;;5093120;28;20180;-59
2023/04/20 09:27:12;;;;;;;0.10;0.10;;;15.70;61.10;;;;;;5093222;28;20196;-59
2023/04/20 09:29:38;;;;;;;0.00;0.00;;;15.50;61.90;;;;;;5093188;28;20191;-59
2023/04/20 09:32:04;;;;;;;0.00;0.00;;;15.10;62.80;;;;;;5093169;28;20180;-59
2023/04/20 09:34:29;;;;;;;0.00;0.00;;;14.90;64.90;;;;;;5093006;28;20212;-59
2023/04/20 09:36:56;;;;;;;0.00;0.00;;;14.50;63.80;;;;;;5093004;28;20176;-59
2023/04/20 09:39:23;;;;;;;0.00;0.00;;;14.50;65.00;;;;;;5074954;28;20180;-59
2023/04/20 09:41:50;;;;;;;0.00;0.00;;;14.40;64.70;;;;;;5092640;28;20699;-59
2023/04/20 09:44:17;;;;;;;0.00;0.00;;;14.20;64.90;;;;;;5092828;28;20172;-59
2023/04/20 09:46:43;;;;;;;0.00;0.00;;;14.00;65.00;;;;;;5092867;28;20622;-59
2023/04/20 09:49:11;;;;;;;0.00;0.00;;;13.80;65.70;;;;;;5092619;28;20176;-59
2023/04/20 09:51:40;;;;;;;0.00;0.00;;;13.60;66.00;;;;;;5074603;28;20184;-59
2023/04/20 09:54:06;;;;;;;0.00;0.00;;;13.40;67.20;;;;;;5092637;28;20238;-60
2023/04/20 09:56:34;;;;;;;0.00;0.00;;;13.20;68.20;;;;;;5092737;28;20174;-60
2023/04/20 09:59:00;;;;;;;0.00;0.00;;;12.90;69.30;;;;;;5092543;28;20176;-60
2023/04/20 10:01:33;;;;;;;0.00;0.00;;;12.70;70.10;;;;;;5092501;28;20173;-59
2023/04/20 10:04:00;;;;;;;0.13;0.13;;;12.40;72.90;;;;;;5092426;28;20242;-60
2023/04/20 10:06:30;;;;;;;0.20;0.20;;;12.10;75.40;;;;;;5092391;28;20200;-59
2023/04/20 10:08:57;;;;;;;0.00;0.00;;;11.80;77.80;;;;;;5092544;28;20172;-60
2023/04/20 10:11:36;;;;;;;0.00;0.00;;;11.60;79.20;;;;;;5092426;28;20631;-59
2023/04/20 10:14:19;;;;;;;0.10;0.10;;;11.40;80.30;;;;;;5092175;28;20203;-59
2023/04/20 10:16:57;;;;;;;0.00;0.00;;;11.40;85.30;;;;;;5092400;28;20176;-59
2023/04/20 10:19:23;;;;;;;0.00;0.00;;;11.50;88.70;;;;;;5092243;28;20176;-59
2023/04/20 10:21:50;;;;;;;0.20;0.20;;;11.70;89.60;;;;;;5092139;28;20660;-59
2023/04/20 10:24:28;;;;;;;0.00;0.00;;;11.80;89.40;;;;;;5092033;28;20657;-58
2023/04/20 10:26:53;;;;;;;0.00;0.00;;;11.80;89.10;;;;;;5091922;28;20184;-59
2023/04/20 10:29:26;;;;;;;0.03;0.03;;;11.90;90.20;;;;;;5091939;28;20638;-59
2023/04/20 10:31:53;;;;;;;0.00;0.00;;;11.90;90.90;;;;;;5092199;28;20172;-59
2023/04/20 10:34:32;;;;;;;0.00;0.00;;;12.00;92.00;;;;;;5091810;28;20727;-59
2023/04/20 10:37:08;;;;;;;0.00;0.00;;;12.10;91.00;;;;;;5091953;28;20179;-58
2023/04/20 10:39:33;;;;;;;0.00;0.00;;;12.10;90.60;;;;;;5091935;28;20179;-59
2023/04/20 10:42:00;;;;;;;0.00;0.00;;;12.10;90.70;;;;;;5091814;28;20176;-58
2023/04/20 10:44:26;;;;;;;0.00;0.00;;;12.00;90.90;;;;;;5091667;28;20178;-58
2023/04/20 10:46:53;;;;;;;0.00;0.00;;;11.90;92.20;;;;;;5091820;28;20164;-59
2023/04/20 10:49:24;;;;;;;0.00;0.00;;;11.80;92.30;;;;;;5091247;28;20175;-59
2023/04/20 10:51:51;;;;;;;0.00;0.00;;;11.70;91.50;;;;;;5091587;28;20244;-59
2023/04/20 10:54:17;;;;;;;0.00;0.00;;;11.70;91.30;;;;;;5091480;28;20216;-59
2023/04/20 10:56:45;;;;;;;0.00;0.00;;;11.80;91.80;;;;;;5091612;28;20260;-58
2023/04/20 10:59:15;;;;;;;0.00;0.00;;;11.90;91.30;;;;;;5091527;28;20631;-59
2023/04/20 11:01:41;;;;;;;0.08;0.08;;;11.90;91.30;;;;;;5091565;28;20179;-59
2023/04/20 11:04:09;;;;;;;0.00;0.00;;;12.00;91.50;;;;;;5091152;28;20168;-59
2023/04/20 11:06:36;;;;;;;0.00;0.00;;;12.00;92.20;;;;;;5091356;28;20176;-59
2023/04/20 11:09:02;;;;;;;0.00;0.00;;;11.90;91.50;;;;;;5091397;28;20241;-59
2023/04/20 11:11:28;;;;;;;0.00;0.00;;;11.80;91.40;;;;;;5091246;28;20179;-58
2023/04/20 11:14:07;;;;;;;0.22;0.22;;;11.70;90.70;;;;;;5091248;28;20569;-59
2023/04/20 11:16:35;;;;;;;0.00;0.00;;;11.50;91.60;;;;;;5091391;28;20629;-59
2023/04/20 11:19:02;;;;;;;0.00;0.00;;;11.50;92.70;;;;;;5091360;28;20637;-59
2023/04/20 11:21:39;;;;;;;0.08;0.08;;;11.60;93.20;;;;;;5091297;28;20229;-59
2023/04/20 11:24:40;;;;;;;0.00;0.00;;;11.80;92.90;;;;;;5091381;28;20195;-59
2023/04/20 11:27:05;;;;;;;0.00;0.00;;;12.20;93.60;;;;;;5037714;28;20669;-59
2023/04/20 11:29:34;;;;;;;0.00;0.00;;;12.50;93.60;;;;;;5091201;28;20172;-59
2023/04/20 11:32:05;;;;;;;0.00;0.00;;;12.70;92.70;;;;;;5091231;28;20210;-59
2023/04/20 11:34:32;;;;;;;0.00;0.00;;;12.90;91.40;;;;;;5091013;28;20204;-59
2023/04/20 11:37:06;;;;;;;0.20;0.20;;;12.90;90.20;;;;;;5091137;28;20531;-59
2023/04/20 11:39:32;;;;;;;0.00;0.00;;;12.80;89.40;;;;;;5090941;28;20307;-59
2023/04/20 11:41:58;;;;;;;0.00;0.00;;;12.70;90.10;;;;;;5091206;28;20626;-59
2023/04/20 11:44:24;;;;;;;0.00;0.00;;;12.40;89.00;;;;;;5091093;28;20183;-59
2023/04/20 11:46:56;;;;;;;0.00;0.00;;;12.30;89.20;;;;;;5091109;28;20168;-59
2023/04/20 11:49:22;;;;;;;0.00;0.00;;;12.20;87.20;;;;;;5091067;28;20575;-59
2023/04/20 11:51:49;;;;;;;0.00;0.00;;;12.10;88.50;;;;;;5091002;28;20246;-58
2023/04/20 11:54:15;;;;;;;0.00;0.00;;;11.90;85.70;;;;;;5090841;28;20208;-59
2023/04/20 11:56:41;;;;;;;0.00;0.00;;;11.80;87.80;;;;;;5091058;28;20168;-59
2023/04/20 11:59:07;;;;;;;0.00;0.00;;;11.60;88.50;;;;;;5090968;28;20240;-59
2023/04/20 12:01:34;;;;;;;0.00;0.00;;;11.40;87.70;;;;;;5094219;28;20615;-59
2023/04/20 12:04:00;;;;;;;0.10;0.10;;;11.30;87.10;;;;;;5094798;28;20180;-59
2023/04/20 12:06:27;;;;;;;0.00;0.00;;;11.10;88.30;;;;;;5094804;28;20176;-59
2023/04/20 12:08:54;;;;;;;0.05;0.05;;;11.00;88.70;;;;;;5094733;28;20176;-59
2023/04/20 12:11:20;;;;;;;0.10;0.10;;;10.90;88.10;;;;;;5094767;28;20165;-59
2023/04/20 12:13:46;;;;;;;0.00;0.00;;;10.60;88.60;;;;;;5094755;28;20208;-59
2023/04/20 12:16:11;;;;;;;0.00;0.00;;;10.40;89.80;;;;;;5094432;28;20184;-59
2023/04/20 12:18:37;;;;;;;0.10;0.10;;;10.30;90.90;;;;;;5094698;28;20251;-59
2023/04/20 12:21:03;;;;;;;0.00;0.00;;;10.10;91.00;;;;;;5094557;28;20177;-59
2023/04/20 12:23:28;;;;;;;0.00;0.00;;;9.90;92.40;;;;;;5094348;28;20176;-59
2023/04/20 12:25:54;;;;;;;0.03;0.03;;;9.70;93.60;;;;;;5094449;28;20525;-59
2023/04/20 12:28:19;;;;;;;0.00;0.00;;;9.50;94.70;;;;;;5094103;28;20231;-59
2023/04/20 12:30:45;;;;;;;0.30;0.30;;;9.30;95.80;;;;;;5094393;28;20221;-59
2023/04/20 12:33:11;;;;;;;0.00;0.00;;;9.20;96.80;;;;;;5093983;28;20198;-59
2023/04/20 12:35:36;;;;;;;0.00;0.00;;;9.00;97.50;;;;;;5094316;28;20182;-59
2023/04/20 12:38:02;;;;;;;0.00;0.00;;;9.00;99.10;;;;;;5094025;28;20194;-59
2023/04/20 12:40:28;;;;;;;0.00;0.00;;;8.90;99.90;;;;;;5093944;28;20184;-59
2023/04/20 12:42:53;;;;;;;0.25;0.25;;;8.90;99.90;;;;;;5094093;28;20177;-59
2023/04/20 12:45:19;;;;;;;0.00;0.00;;;9.00;99.90;;;;;;5094028;28;20253;-59
2023/04/20 12:47:44;;;;;;;0.00;0.00;;;9.00;99.90;;;;;;5093980;28;20176;-59
2023/04/20 12:50:10;;;;;;;0.00;0.00;;;9.10;99.90;;;;;;5093791;28;20175;-59